Time;durP1;ratioP1;P1;durP2;ratioP2;P2;SDS_P1;SDS_P2;PMS_P1;PMS_P2;Temp;Humidity;BMP_temperature;BMP_pressure;BME280_temperature;BME280_humidity;BME280_pressure;Samples;Min_cycle;Max_cycle;Signal;HPM_P1;HPM_P2
2023/07/03 00:04:14;;;;;;;5.80;4.03;;;;;;;26.76;63.18;99646.09;31621660;28;20056;-85
2023/07/03 00:19:16;;;;;;;6.53;3.47;;;;;;;26.78;63.19;99635.91;31694632;28;20060;-86
2023/07/03 00:34:19;;;;;;;3.63;2.80;;;;;;;26.62;64.07;99650.97;31655672;28;20050;-86
2023/07/03 00:49:21;;;;;;;4.90;3.03;;;;;;;26.50;66.57;99641.38;31667301;28;20074;-84
2023/07/03 01:04:30;;;;;;;3.93;3.00;;;;;;;26.62;68.72;99656.53;31692289;28;20052;-86
2023/07/03 01:19:34;;;;;;;4.28;3.20;;;;;;;26.00;77.94;99668.16;31632820;28;20060;-84
2023/07/03 01:34:40;;;;;;;6.27;3.07;;;;;;;26.12;74.84;99680.59;31549874;28;20059;-84
2023/07/03 01:49:42;;;;;;;3.80;2.83;;;;;;;25.96;76.22;99687.22;31494913;28;20404;-86
2023/07/03 02:04:57;;;;;;;6.68;3.80;;;;;;;25.96;75.74;99697.59;31558726;28;20136;-85
2023/07/03 02:19:59;;;;;;;5.70;3.60;;;;;;;25.94;74.81;99706.47;31619110;28;20068;-81
2023/07/03 02:35:03;;;;;;;5.18;3.35;;;;;;;25.64;76.36;99714.34;31638109;28;20075;-83
2023/07/03 02:50:09;;;;;;;6.13;3.83;;;;;;;25.89;75.79;99726.03;31634731;28;20058;-84
2023/07/03 03:05:13;;;;;;;7.75;5.25;;;;;;;25.79;80.59;99720.13;31630041;28;20051;-84
2023/07/03 03:20:15;;;;;;;;;;;;;;;26.58;88.85;99720.16;31574230;28;20068;-82
2023/07/03 03:35:17;;;;;;;9.57;5.55;;;;;;;26.66;82.84;99723.78;31488406;28;20007;-83
2023/07/03 03:50:38;;;;;;;9.07;5.65;;;;;;;27.29;82.86;99746.94;31557866;28;20520;-83
2023/07/03 04:05:41;;;;;;;13.10;7.45;;;;;;;27.48;83.12;99755.09;31482380;28;20045;-81
2023/07/03 04:20:43;;;;;;;11.32;5.82;;;;;;;27.90;81.03;99769.03;31513850;28;20056;-86
2023/07/03 04:35:47;;;;;;;11.70;5.57;;;;;;;28.51;80.47;99775.78;31474074;28;20110;-85
2023/07/03 04:50:51;;;;;;;11.27;5.78;;;;;;;29.23;80.99;99781.25;31477576;28;20044;-87
2023/07/03 05:05:53;;;;;;;7.40;5.20;;;;;;;29.90;80.80;99784.69;31517736;28;20052;-86
2023/07/03 05:20:55;;;;;;;7.93;4.70;;;;;;;30.49;78.11;99792.81;31562626;28;20060;-84
2023/07/03 05:36:00;;;;;;;9.70;4.65;;;;;;;30.92;75.86;99788.97;31446315;28;20485;-83
2023/07/03 05:51:03;;;;;;;7.88;4.43;;;;;;;31.47;75.10;99790.88;31473709;28;20123;-83
2023/07/03 06:06:06;;;;;;;8.27;4.55;;;;;;;31.15;74.35;99788.84;31542956;28;20041;-91
2023/07/03 06:21:08;;;;;;;11.88;5.80;;;;;;;31.54;73.13;99790.09;31614740;28;20056;-90
2023/07/03 06:36:11;;;;;;;13.45;8.50;;;;;;;31.96;70.30;99798.56;31676829;28;20047;-84
2023/07/03 06:51:14;;;;;;;8.75;5.07;;;;;;;32.27;66.05;99815.16;31607189;28;20051;-81
2023/07/03 07:06:19;;;;;;;7.18;4.63;;;;;;;33.02;62.05;99813.53;31630333;28;20937;-80
2023/07/03 07:21:38;;;;;;;3.92;3.38;;;;;;;33.52;55.02;99822.44;31703718;28;20466;-81
2023/07/03 07:36:40;;;;;;;4.45;3.05;;;;;;;34.45;46.85;99816.75;31625393;28;20044;-81
2023/07/03 07:51:42;;;;;;;5.05;3.05;;;;;;;34.72;47.09;99827.88;31643366;28;20060;-87
2023/07/03 08:06:47;;;;;;;5.18;4.00;;;;;;;35.28;45.78;99825.59;31629592;28;20123;-83
2023/07/03 08:22:06;;;;;;;2.80;2.15;;;;;;;36.17;43.41;99825.31;31627542;28;20055;-84
2023/07/03 08:37:09;;;;;;;2.07;1.80;;;;;;;36.60;41.19;99828.91;31617121;28;20054;-81
2023/07/03 08:52:17;;;;;;;6.10;2.58;;;;;;;37.33;41.46;99825.06;31605593;28;20375;-80
2023/07/03 09:07:29;;;;;;;5.53;3.00;;;;;;;37.41;40.68;99819.91;31611546;28;20040;-84
2023/07/03 09:22:42;;;;;;;9.50;3.20;;;;;;;38.22;37.92;99824.81;31614003;28;20094;-81
2023/07/03 09:37:51;;;;;;;3.17;2.40;;;;;;;38.06;40.22;99821.00;31662222;28;20643;-83
2023/07/03 09:52:58;;;;;;;7.10;2.05;;;;;;;38.69;36.59;99819.00;31599835;28;20135;-80
2023/07/03 10:08:31;;;;;;;3.65;2.33;;;;;;;39.27;36.93;99820.78;31581729;28;20426;-83
2023/07/03 10:23:37;;;;;;;3.33;2.22;;;;;;;39.60;34.62;99831.06;31503790;28;20083;-81
2023/07/03 10:39:11;;;;;;;14.38;10.95;;;;;;;40.27;33.88;99825.97;31506898;28;20059;-80
2023/07/03 10:54:21;;;;;;;7.10;4.20;;;;;;;41.42;32.94;99822.97;31471887;28;20048;-81
2023/07/03 11:10:00;;;;;;;6.18;4.07;;;;;;;39.97;34.32;99811.69;31497208;28;20057;-81
2023/07/03 11:25:24;;;;;;;3.63;1.90;;;;;;;39.09;33.75;99802.78;31460420;28;20053;-80
2023/07/03 11:40:29;;;;;;;9.00;2.88;;;;;;;38.24;34.53;99803.63;31521933;28;20095;-82
2023/07/03 11:55:37;;;;;;;6.78;2.55;;;;;;;36.76;35.79;99776.25;31476117;28;20470;-79
2023/07/03 12:10:45;;;;;;;12.20;6.43;;;;;;;36.74;36.23;99770.47;31482127;28;20143;-82
2023/07/03 12:25:48;;;;;;;3.05;2.47;;;;;;;36.38;37.10;99753.97;31482086;28;20049;-84
2023/07/03 12:40:50;;;;;;;5.20;2.60;;;;;;;36.31;38.36;99746.44;31482063;28;20052;-83
2023/07/03 12:56:03;;;;;;;5.95;3.05;;;;;;;36.34;38.55;99745.97;31499166;28;20048;-84
2023/07/03 13:11:09;;;;;;;9.93;2.28;;;;;;;36.41;36.74;99756.31;31479357;28;20143;-80
2023/07/03 13:26:20;;;;;;;2.72;1.98;;;;;;;35.55;37.64;99764.00;31587625;28;20056;-79
2023/07/03 13:41:24;;;;;;;3.08;2.10;;;;;;;35.73;37.32;99775.03;31611468;28;20079;-79
2023/07/03 13:56:28;;;;;;;7.45;2.20;;;;;;;35.18;37.07;99765.63;31606831;28;20040;-78
2023/07/03 14:11:31;;;;;;;3.78;2.00;;;;;;;34.98;37.09;99764.19;31604904;28;20052;-77
2023/07/03 14:26:33;;;;;;;3.55;2.22;;;;;;;34.67;37.40;99764.84;31621721;28;20125;-76
2023/07/03 14:41:36;;;;;;;5.40;2.63;;;;;;;34.68;37.51;99755.03;31630326;28;20548;-81
2023/07/03 14:56:39;;;;;;;2.72;2.13;;;;;;;34.67;37.45;99764.84;31628788;28;20048;-83
2023/07/03 15:12:13;;;;;;;3.33;1.90;;;;;;;34.62;36.21;99757.41;31677015;28;20048;-83
2023/07/03 15:27:16;;;;;;;6.55;2.30;;;;;;;34.42;37.19;99767.97;31513235;28;20052;-82
2023/07/03 15:42:18;;;;;;;2.30;1.90;;;;;;;34.48;36.91;99776.13;31490196;28;20056;-81
2023/07/03 15:57:21;;;;;;;2.58;1.92;;;;;;;34.49;36.84;99794.50;31484558;28;20052;-77
2023/07/03 16:12:23;;;;;;;5.80;2.45;;;;;;;34.28;36.65;99789.41;31545737;28;20048;-85
2023/07/03 16:27:26;;;;;;;3.70;2.45;;;;;;;34.24;36.20;99782.78;31653864;28;20408;-84
2023/07/03 16:42:28;;;;;;;12.02;4.80;;;;;;;33.97;36.41;99797.69;31627137;28;20056;-77
2023/07/03 16:57:30;;;;;;;4.60;2.40;;;;;;;33.76;36.96;99817.19;31592709;28;20066;-77
2023/07/03 17:12:32;;;;;;;5.80;2.63;;;;;;;33.52;37.08;99828.06;31634125;28;20457;-77
2023/07/03 17:27:35;;;;;;;6.07;2.63;;;;;;;33.42;37.51;99832.88;31605744;28;20105;-77
2023/07/03 17:42:37;;;;;;;4.97;2.80;;;;;;;33.30;37.75;99839.63;31619586;28;20048;-78
2023/07/03 17:57:39;;;;;;;7.82;2.40;;;;;;;33.11;38.29;99845.84;31633703;28;20407;-79
2023/07/03 18:12:42;;;;;;;3.78;2.65;;;;;;;32.63;39.22;99865.88;31625728;28;20059;-80
2023/07/03 18:27:44;;;;;;;8.98;5.45;;;;;;;32.43;40.81;99889.50;31495346;28;20074;-78
2023/07/03 18:42:47;;;;;;;10.63;4.05;;;;;;;31.50;45.01;99922.31;31484818;28;20452;-79
2023/07/03 18:57:49;;;;;;;8.05;5.10;;;;;;;31.05;53.40;99928.09;31437172;28;20044;-78
2023/07/03 19:12:51;;;;;;;16.35;12.38;;;;;;;30.64;61.71;99912.50;31522008;28;20055;-85
2023/07/03 19:27:54;;;;;;;14.80;8.75;;;;;;;30.51;65.96;99907.81;31640300;28;20048;-78
2023/07/03 19:42:56;;;;;;;10.45;6.43;;;;;;;30.35;69.11;99900.75;31616861;28;20407;-78
2023/07/03 19:57:58;;;;;;;10.13;7.00;;;;;;;30.14;73.85;99912.88;31587284;28;20282;-82
2023/07/03 20:13:00;;;;;;;10.40;6.63;;;;;;;29.88;78.57;99909.66;31610751;28;20052;-84
2023/07/03 20:28:02;;;;;;;;;;;;;;;29.63;94.58;99912.97;31598368;28;20059;-82
2023/07/03 20:43:07;;;;;;;10.07;6.90;;;;;;;29.55;89.07;99925.44;31645210;28;19924;-83
2023/07/03 20:58:13;;;;;;;9.67;6.63;;;;;;;29.45;92.74;99931.56;31623101;28;20056;-83
2023/07/03 21:13:15;;;;;;;12.35;6.82;;;;;;;29.10;98.26;99927.47;31593990;28;20491;-83
2023/07/03 21:28:17;;;;;;;12.20;9.00;;;;;;;29.22;95.83;99922.31;31592440;28;20048;-83
2023/07/03 21:43:20;;;;;;;9.93;7.67;;;;;;;29.21;96.73;99918.03;31620989;28;20098;-78
2023/07/03 21:58:23;;;;;;;12.30;7.30;;;;;;;29.37;98.50;99913.97;31603155;28;20471;-74
2023/07/03 22:13:26;;;;;;;10.38;8.05;;;;;;;29.22;99.99;99925.13;31575999;28;20094;-77
2023/07/03 22:28:29;;;;;;;11.57;6.97;;;;;;;28.98;100.00;99908.78;31616586;28;20102;-77
2023/07/03 22:43:31;;;;;;;13.02;7.32;;;;;;;28.74;100.00;99907.13;31592307;28;20059;-75
2023/07/03 22:58:35;;;;;;;12.70;8.40;;;;;;;28.40;100.00;99896.09;31619771;28;20051;-77
2023/07/03 23:13:37;;;;;;;12.93;8.70;;;;;;;28.17;100.00;99899.44;31620815;28;20623;-77
2023/07/03 23:28:42;;;;;;;16.13;9.93;;;;;;;27.66;100.00;99895.59;31612057;28;20044;-75
2023/07/03 23:43:44;;;;;;;27.90;18.15;;;;;;;27.50;100.00;99901.00;31582059;28;20052;-77
2023/07/03 23:58:48;;;;;;;16.13;10.07;;;;;;;27.18;100.00;99887.25;31598482;28;20048;-76
